McRae, GA

2:19 AM EDT on September 20, 2014 (GMT -0400)
Springhill Road | Change Station
CLOSE
Current Station
Personal Weather Station
Location: Alamo, GA
Elevation: 259 ft
Nearby Weather Stations

Elev 259 ft 32.07 °N, 82.73 °W | Updated 1 minute ago

Clear
Clear
67.6 °F
Feels Like 67.6 °F
N
5.8
Wind Variable Wind from East

Today
High -- | Low -- °F
--% Chance of Precip.
Yesterday
High -- | Low -- °F
Precip. -- in
7:18 AM 7:30 PM
Waning Crescent, 14% visible
Pressure 30.09 in
Visibility 10.0 miles
Clouds Clear
Dew Point 67 °F
Humidity 99%
Rainfall 0.00 in
Snow Depth Not available.
UV 0 out of 12
Pollen 8.40 out of 12
Air Quality Not available.
Flu Activity Not available.
METAR KEZM 200555Z AUTO 05004KT 10SM CLR 20/20 A3009 RMK AO2 T02030203 10217 20203 403060195

More Conditions Fewer Conditions

Pressure 30.09 in
Visibility 10.0 miles
Clouds Clear
Dew Point 67 °F
Humidity 99%
Rainfall 0.00 in
Snow Depth Not available.
UV 0 out of 12
Pollen 8.40 out of 12
Air Quality Not available.
Flu Activity Not available.
METAR KEZM 200555Z AUTO 05004KT 10SM CLR 20/20 A3009 RMK AO2 T02030203 10217 20203 403060195

More Conditions Fewer Conditions

10-Day Weather Forecast

Almanac

Astronomy

Sep. 20, 2014 Rise Set
Actual Time 7:18 AM EDT 7:30 PM EDT
Civil Twilight 6:54 AM EDT 7:55 PM EDT
Nautical Twilight 6:25 AM EDT 8:23 PM EDT
Astronomical Twilight 5:56 AM EDT 8:52 PM EDT
Moon 4:06 AM EDT 5:25 PM EDT
Length of Visible Light 13h 01m
Length of Day
12h 12m
Tomorrow will be 1m 56s shorter.
Waning Crescent, 14% of the Moon is Illuminated
Today
Waning Crescent
Sep 24
New
Oct 1
First Quarter
Oct 8
Full
Oct 15
Last Quarter

Today's Extremes

State Highs State Lows

Community

WunderPhotos

Upload Photos

1,754,777 photos uploaded!

WunderBlogs® & News

Nearby

Snow Depth

Station Depth Elevation
No new snow has been reported.

Earthquake Activity

City Distance Mag. Time & Date
New Ellenton, South Carolina 117 miles 2.6 4:38 PM EDT
2014-09-19
Minimum magnitude displayed is 2.5.

Coastal Water Temperatures

Place Temperature
No Stations Reporting

Nearby Weather Stations